Time;durP1;ratioP1;P1;durP2;ratioP2;P2;SDS_P1;SDS_P2;PMS_P1;PMS_P2;Temp;Humidity;BMP_temperature;BMP_pressure;BME280_temperature;BME280_humidity;BME280_pressure;Samples;Min_cycle;Max_cycle;Signal;HPM_P1;HPM_P2
2021/12/10 00:01:25;;;;;;;6.47;2.17;;;;;;;;;;5051941;28;20506;-86
2021/12/10 00:03:52;;;;;;;8.73;2.40;;;;;;;;;;5058193;28;20115;-86
2021/12/10 00:06:22;;;;;;;12.23;2.95;;;;;;;;;;5072036;28;20101;-87
2021/12/10 00:08:52;;;;;;;5.50;2.30;;;;;;;;;;5071401;28;20016;-87
2021/12/10 00:11:21;;;;;;;6.05;2.40;;;;;;;;;;5071815;28;20111;-87
2021/12/10 00:13:47;;;;;;;6.25;1.85;;;;;;;;;;5071952;28;20016;-87
2021/12/10 00:16:14;;;;;;;6.10;1.98;;;;;;;;;;5071927;28;20070;-87
2021/12/10 00:18:43;;;;;;;10.20;2.35;;;;;;;;;;5071691;28;20086;-87
2021/12/10 00:21:08;;;;;;;4.25;1.60;;;;;;;;;;5057100;28;20033;-87
2021/12/10 00:23:34;;;;;;;8.95;3.10;;;;;;;;;;5052730;28;20017;-87
2021/12/10 00:26:01;;;;;;;11.68;2.80;;;;;;;;;;5054576;28;20029;-87
2021/12/10 00:28:31;;;;;;;8.40;2.67;;;;;;;;;;5055685;28;20032;-87
2021/12/10 00:31:15;;;;;;;7.10;2.30;;;;;;;;;;5055119;28;20025;-87
2021/12/10 00:33:42;;;;;;;6.95;2.08;;;;;;;;;;5055773;28;20021;-87
2021/12/10 00:36:07;;;;;;;7.35;1.75;;;;;;;;;;5056953;28;20017;-87
2021/12/10 00:38:33;;;;;;;7.00;2.13;;;;;;;;;;5055150;28;20028;-87
2021/12/10 00:40:58;;;;;;;7.03;1.95;;;;;;;;;;5055464;28;20017;-87
2021/12/10 00:43:24;;;;;;;11.80;2.10;;;;;;;;;;5055765;28;20032;-87
2021/12/10 00:45:50;;;;;;;3.90;1.48;;;;;;;;;;5055408;28;20017;-87
2021/12/10 00:48:15;;;;;;;6.45;1.80;;;;;;;;;;5055012;28;20024;-87
2021/12/10 00:50:45;;;;;;;8.68;1.90;;;;;;;;;;5055293;28;20031;-87
2021/12/10 00:53:11;;;;;;;9.25;2.00;;;;;;;;;;5055181;28;20017;-87
2021/12/10 00:55:36;;;;;;;8.02;2.47;;;;;;;;;;5055267;28;20375;-87
2021/12/10 00:58:03;;;;;;;6.35;2.20;;;;;;;;;;5055295;28;20021;-87
2021/12/10 01:00:48;;;;;;;9.23;1.73;;;;;;;;;;5054781;28;20024;-87
2021/12/10 01:03:15;;;;;;;3.88;1.60;;;;;;;;;;5054823;28;20024;-87
2021/12/10 01:05:41;;;;;;;3.55;1.52;;;;;;;;;;5055057;28;20021;-87
2021/12/10 01:08:07;;;;;;;5.00;1.98;;;;;;;;;;5054920;28;20457;-87
2021/12/10 01:10:36;;;;;;;6.68;1.80;;;;;;;;;;5054771;28;20115;-87
2021/12/10 01:13:03;;;;;;;3.40;1.30;;;;;;;;;;5054931;28;20021;-87
2021/12/10 01:15:42;;;;;;;9.13;2.53;;;;;;;;;;5054916;28;20017;-87
2021/12/10 01:23:57;;;;;;;1.60;0.73;;;;;;;;;;5056079;28;20028;-87
2021/12/10 01:26:40;;;;;;;12.90;1.80;;;;;;;;;;5054584;28;20032;-87
2021/12/10 01:29:06;;;;;;;7.85;1.73;;;;;;;;;;5055830;28;20021;-87
2021/12/10 01:31:31;;;;;;;4.95;1.48;;;;;;;;;;5054406;28;20025;-87
2021/12/10 01:33:57;;;;;;;10.55;2.03;;;;;;;;;;5054579;28;20108;-87
2021/12/10 01:36:22;;;;;;;3.63;1.48;;;;;;;;;;5054392;28;20020;-87
2021/12/10 01:38:50;;;;;;;10.02;1.75;;;;;;;;;;5054440;28;20095;-87
2021/12/10 01:41:18;;;;;;;8.55;1.60;;;;;;;;;;5054439;28;20052;-87
2021/12/10 01:43:45;;;;;;;4.97;1.50;;;;;;;;;;5054490;28;20028;-87
2021/12/10 01:46:12;;;;;;;3.28;1.38;;;;;;;;;;5055175;28;20098;-87
2021/12/10 01:48:48;;;;;;;7.28;0.80;;;;;;;;;;5054078;28;20021;-87
2021/12/10 01:51:18;;;;;;;5.25;1.83;;;;;;;;;;5054051;28;20021;-87
2021/12/10 01:53:44;;;;;;;9.57;1.70;;;;;;;;;;5054280;28;20013;-87
2021/12/10 01:56:14;;;;;;;10.15;1.95;;;;;;;;;;5087658;28;20124;-86
2021/12/10 01:58:40;;;;;;;5.50;1.40;;;;;;;;;;5087485;28;20025;-87
2021/12/10 02:01:07;;;;;;;4.13;1.50;;;;;;;;;;5055197;28;20013;-87
2021/12/10 02:03:33;;;;;;;9.55;1.70;;;;;;;;;;5087598;28;20025;-87
2021/12/10 02:05:58;;;;;;;2.85;1.35;;;;;;;;;;5087550;28;20048;-87
2021/12/10 02:08:24;;;;;;;6.47;1.17;;;;;;;;;;5087230;28;20115;-86
2021/12/10 02:10:49;;;;;;;8.20;2.15;;;;;;;;;;5087417;28;20020;-87
2021/12/10 02:13:14;;;;;;;7.25;1.10;;;;;;;;;;5086093;28;20041;-87
2021/12/10 02:15:40;;;;;;;3.92;1.25;;;;;;;;;;5055184;28;20102;-87
2021/12/10 02:18:05;;;;;;;9.43;1.58;;;;;;;;;;5053589;28;20027;-87
2021/12/10 02:20:34;;;;;;;6.15;1.23;;;;;;;;;;5054852;28;20086;-87
2021/12/10 02:23:01;;;;;;;5.88;1.08;;;;;;;;;;5053415;28;20048;-87
2021/12/10 02:25:27;;;;;;;3.58;0.82;;;;;;;;;;5053257;28;20036;-87
2021/12/10 02:27:53;;;;;;;4.20;1.30;;;;;;;;;;5053944;28;20098;-87
2021/12/10 02:30:18;;;;;;;4.47;0.85;;;;;;;;;;5053334;28;20037;-87
2021/12/10 02:32:44;;;;;;;3.03;1.10;;;;;;;;;;5054660;28;20437;-87
2021/12/10 02:35:11;;;;;;;3.10;1.05;;;;;;;;;;5054745;28;20354;-86
2021/12/10 02:37:37;;;;;;;6.97;1.15;;;;;;;;;;5053343;28;20461;-87
2021/12/10 02:40:04;;;;;;;2.97;0.88;;;;;;;;;;5053226;28;20052;-86
2021/12/10 02:42:29;;;;;;;5.47;1.50;;;;;;;;;;5052781;28;20029;-87
2021/12/10 02:44:54;;;;;;;2.35;0.93;;;;;;;;;;5053013;28;20021;-87
2021/12/10 02:47:20;;;;;;;3.33;1.10;;;;;;;;;;5052650;28;20120;-87
2021/12/10 02:49:45;;;;;;;4.53;0.60;;;;;;;;;;5053177;28;20167;-87
2021/12/10 02:52:11;;;;;;;1.95;0.63;;;;;;;;;;5052944;28;20025;-87
2021/12/10 02:54:37;;;;;;;6.05;1.15;;;;;;;;;;5052664;28;20383;-87
2021/12/10 02:57:05;;;;;;;3.83;1.30;;;;;;;;;;5049091;28;20029;-87
2021/12/10 02:59:30;;;;;;;6.07;0.98;;;;;;;;;;5049722;28;20029;-87
2021/12/10 03:01:56;;;;;;;6.13;1.40;;;;;;;;;;5049543;28;20099;-87
2021/12/10 03:04:21;;;;;;;1.48;0.70;;;;;;;;;;5065987;28;20030;-87
2021/12/10 03:06:50;;;;;;;5.43;0.90;;;;;;;;;;5052388;28;20116;-87
2021/12/10 03:09:16;;;;;;;3.20;0.93;;;;;;;;;;5053885;28;20423;-87
2021/12/10 03:11:48;;;;;;;4.43;1.48;;;;;;;;;;5052885;28;20017;-87
2021/12/10 03:14:16;;;;;;;6.93;0.98;;;;;;;;;;5052685;28;20109;-87
2021/12/10 03:16:41;;;;;;;3.78;0.95;;;;;;;;;;5052567;28;20028;-87
2021/12/10 03:19:07;;;;;;;7.07;1.10;;;;;;;;;;5052525;28;20116;-87
2021/12/10 03:21:33;;;;;;;2.70;0.63;;;;;;;;;;5052710;28;20021;-87
2021/12/10 03:23:58;;;;;;;3.58;0.60;;;;;;;;;;5054090;28;20047;-87
2021/12/10 03:26:24;;;;;;;5.28;1.23;;;;;;;;;;5052577;28;20037;-88
2021/12/10 03:28:50;;;;;;;5.05;0.75;;;;;;;;;;5052420;28;20437;-88
2021/12/10 03:31:16;;;;;;;3.53;0.70;;;;;;;;;;5053709;28;20473;-87
2021/12/10 03:33:41;;;;;;;6.47;1.23;;;;;;;;;;5052281;28;20017;-87
2021/12/10 03:36:07;;;;;;;0.30;0.25;;;;;;;;;;5052463;28;20130;-88
2021/12/10 03:38:33;;;;;;;6.32;0.80;;;;;;;;;;5052177;28;20020;-87
2021/12/10 03:40:59;;;;;;;5.30;0.80;;;;;;;;;;5052210;28;20075;-87
2021/12/10 03:43:25;;;;;;;3.17;0.75;;;;;;;;;;5052278;28;20020;-87
2021/12/10 03:45:52;;;;;;;0.40;0.28;;;;;;;;;;5051693;28;20032;-88
2021/12/10 03:48:19;;;;;;;2.08;0.60;;;;;;;;;;5051853;28;20068;-87
2021/12/10 03:50:46;;;;;;;6.88;0.70;;;;;;;;;;5052055;28;20025;-88
2021/12/10 03:53:11;;;;;;;8.30;0.80;;;;;;;;;;5052202;28;20021;-87
2021/12/10 03:55:36;;;;;;;1.75;0.35;;;;;;;;;;5051976;28;20027;-87
2021/12/10 03:58:02;;;;;;;0.52;0.20;;;;;;;;;;5051992;28;20087;-87
2021/12/10 04:00:30;;;;;;;4.78;0.63;;;;;;;;;;5050463;28;20381;-87
2021/12/10 04:02:57;;;;;;;3.08;0.70;;;;;;;;;;5085516;28;20499;-87
2021/12/10 04:05:22;;;;;;;2.15;0.43;;;;;;;;;;5085775;28;20377;-88
2021/12/10 04:07:48;;;;;;;1.73;0.30;;;;;;;;;;5052065;28;20059;-88
2021/12/10 04:10:14;;;;;;;1.80;0.50;;;;;;;;;;5085385;28;20384;-88
2021/12/10 04:12:39;;;;;;;3.03;0.73;;;;;;;;;;5085490;28;20023;-88
2021/12/10 04:15:05;;;;;;;4.63;0.80;;;;;;;;;;5074836;28;20026;-88
2021/12/10 04:17:31;;;;;;;3.00;0.63;;;;;;;;;;5031986;28;20026;-88
2021/12/10 04:19:56;;;;;;;7.88;0.45;;;;;;;;;;5033112;28;20024;-88
2021/12/10 04:22:23;;;;;;;4.50;0.80;;;;;;;;;;5031969;28;20026;-88
2021/12/10 04:24:48;;;;;;;7.25;0.75;;;;;;;;;;5031972;28;20032;-88
2021/12/10 04:27:14;;;;;;;3.92;0.73;;;;;;;;;;5032947;28;20021;-88
2021/12/10 04:29:40;;;;;;;1.88;0.90;;;;;;;;;;5031551;28;20068;-88
2021/12/10 04:32:06;;;;;;;3.70;0.70;;;;;;;;;;5033191;28;20015;-88
2021/12/10 04:34:31;;;;;;;7.18;0.98;;;;;;;;;;5031727;28;20053;-87
2021/12/10 04:36:58;;;;;;;4.97;0.73;;;;;;;;;;5031669;28;20112;-88
2021/12/10 04:39:24;;;;;;;6.90;0.80;;;;;;;;;;5031719;28;20037;-87
2021/12/10 04:41:49;;;;;;;7.72;0.68;;;;;;;;;;5031743;28;20472;-88
2021/12/10 04:44:14;;;;;;;6.13;0.82;;;;;;;;;;5036239;28;20032;-87
2021/12/10 04:46:40;;;;;;;5.53;0.90;;;;;;;;;;5083731;28;20491;-87
2021/12/10 04:49:08;;;;;;;5.47;0.73;;;;;;;;;;5084004;28;20017;-88
2021/12/10 04:51:38;;;;;;;4.60;0.60;;;;;;;;;;5083908;28;20021;-87
2021/12/10 04:54:04;;;;;;;4.18;0.60;;;;;;;;;;5051685;28;20021;-88
2021/12/10 04:56:30;;;;;;;3.78;0.70;;;;;;;;;;5051107;28;20025;-88
2021/12/10 04:58:55;;;;;;;5.10;0.43;;;;;;;;;;5083790;28;20029;-88
2021/12/10 05:01:21;;;;;;;3.28;0.50;;;;;;;;;;5083417;28;20013;-87
2021/12/10 05:03:46;;;;;;;7.72;1.02;;;;;;;;;;5050859;28;20351;-88
2021/12/10 05:06:12;;;;;;;5.07;0.68;;;;;;;;;;5083189;28;20476;-87
2021/12/10 05:08:38;;;;;;;1.85;0.30;;;;;;;;;;5083269;28;20025;-87
2021/12/10 05:11:04;;;;;;;2.78;0.60;;;;;;;;;;5085200;28;20473;-87
2021/12/10 05:13:30;;;;;;;6.00;0.70;;;;;;;;;;5087266;28;20596;-88
2021/12/10 05:15:58;;;;;;;5.78;0.57;;;;;;;;;;5055823;28;20071;-87
2021/12/10 05:18:25;;;;;;;4.68;0.50;;;;;;;;;;5054905;28;20485;-86
2021/12/10 05:20:50;;;;;;;1.13;0.32;;;;;;;;;;5054906;28;20108;-88
2021/12/10 05:23:16;;;;;;;5.55;0.63;;;;;;;;;;5054902;28;20044;-87
2021/12/10 05:25:42;;;;;;;5.07;0.70;;;;;;;;;;5054729;28;20495;-87
2021/12/10 05:28:07;;;;;;;0.15;0.10;;;;;;;;;;5054733;28;20472;-87
2021/12/10 05:30:34;;;;;;;8.02;0.70;;;;;;;;;;5054373;28;20380;-87
2021/12/10 05:33:01;;;;;;;3.05;0.60;;;;;;;;;;5055990;28;20031;-87
2021/12/10 05:35:26;;;;;;;2.97;0.50;;;;;;;;;;5054439;28;20147;-87
2021/12/10 05:37:52;;;;;;;3.78;0.70;;;;;;;;;;5054532;28;20077;-87
2021/12/10 05:40:17;;;;;;;3.25;0.82;;;;;;;;;;5054098;28;20025;-87
2021/12/10 05:42:44;;;;;;;5.13;0.80;;;;;;;;;;5055708;28;20059;-88
2021/12/10 05:45:10;;;;;;;0.93;0.30;;;;;;;;;;5054436;28;20024;-87
2021/12/10 05:47:35;;;;;;;2.90;0.63;;;;;;;;;;5054224;28;20216;-87
2021/12/10 05:50:01;;;;;;;0.77;0.47;;;;;;;;;;5054132;28;20547;-87
2021/12/10 05:52:26;;;;;;;3.63;0.45;;;;;;;;;;5054246;28;20017;-88
2021/12/10 05:54:52;;;;;;;1.55;0.80;;;;;;;;;;5054255;28;20090;-87
2021/12/10 05:57:17;;;;;;;3.28;0.50;;;;;;;;;;5054175;28;20403;-87
2021/12/10 05:59:43;;;;;;;2.10;0.50;;;;;;;;;;5060454;28;20032;-87
2021/12/10 06:02:08;;;;;;;1.83;0.52;;;;;;;;;;5072689;28;20020;-87
2021/12/10 06:04:34;;;;;;;4.13;0.70;;;;;;;;;;5072815;28;20024;-87
2021/12/10 06:07:00;;;;;;;3.17;0.60;;;;;;;;;;5073501;28;20104;-87
2021/12/10 06:09:25;;;;;;;0.40;0.30;;;;;;;;;;5072625;28;20111;-88
2021/12/10 06:11:50;;;;;;;8.50;0.65;;;;;;;;;;5072552;28;20031;-87
2021/12/10 06:14:16;;;;;;;3.13;0.50;;;;;;;;;;5072430;28;20020;-87
2021/12/10 06:16:41;;;;;;;2.72;0.63;;;;;;;;;;5071950;28;20055;-87
2021/12/10 06:19:07;;;;;;;2.08;0.68;;;;;;;;;;5072564;28;20151;-87
2021/12/10 06:21:33;;;;;;;3.15;0.65;;;;;;;;;;5072299;28;20035;-87
2021/12/10 06:23:59;;;;;;;1.48;0.45;;;;;;;;;;5070938;28;20505;-87
2021/12/10 06:26:24;;;;;;;4.03;0.65;;;;;;;;;;5073385;28;20060;-87
2021/12/10 06:28:49;;;;;;;6.07;0.60;;;;;;;;;;5073496;28;20099;-87
2021/12/10 06:31:15;;;;;;;1.40;0.55;;;;;;;;;;5073161;28;20025;-87
2021/12/10 06:33:41;;;;;;;2.17;0.50;;;;;;;;;;5054505;28;20040;-87
2021/12/10 06:36:06;;;;;;;1.52;0.40;;;;;;;;;;5053392;28;20392;-87
2021/12/10 06:38:32;;;;;;;2.58;0.50;;;;;;;;;;5053368;28;20472;-87
2021/12/10 06:40:57;;;;;;;6.75;0.90;;;;;;;;;;5053143;28;20055;-87
2021/12/10 06:43:22;;;;;;;4.18;0.73;;;;;;;;;;5052966;28;20540;-87
2021/12/10 06:45:49;;;;;;;3.33;0.70;;;;;;;;;;5053131;28;20044;-87
2021/12/10 06:48:15;;;;;;;5.60;0.75;;;;;;;;;;5053267;28;20104;-87
2021/12/10 06:50:43;;;;;;;1.92;0.80;;;;;;;;;;5052840;28;20116;-87
2021/12/10 06:53:08;;;;;;;2.63;0.65;;;;;;;;;;5054216;28;20021;-87
2021/12/10 06:55:34;;;;;;;0.93;0.45;;;;;;;;;;5054354;28;20112;-87
2021/12/10 06:57:59;;;;;;;5.00;0.77;;;;;;;;;;5053198;28;20025;-87
2021/12/10 07:00:40;;;;;;;4.78;0.60;;;;;;;;;;5053296;28;20033;-87
2021/12/10 07:03:05;;;;;;;3.00;0.65;;;;;;;;;;5052979;28;20036;-86
2021/12/10 07:05:31;;;;;;;3.88;0.88;;;;;;;;;;5051704;28;20488;-86
2021/12/10 07:07:56;;;;;;;3.40;0.82;;;;;;;;;;5053651;28;20017;-86
2021/12/10 07:10:21;;;;;;;5.75;0.82;;;;;;;;;;5080152;28;20022;-86
2021/12/10 07:12:46;;;;;;;2.60;0.93;;;;;;;;;;5055475;28;20021;-86
2021/12/10 07:15:13;;;;;;;2.38;0.57;;;;;;;;;;5052134;28;20021;-86
2021/12/10 07:17:39;;;;;;;1.52;0.63;;;;;;;;;;5052300;28;20107;-86
2021/12/10 07:20:06;;;;;;;2.15;0.80;;;;;;;;;;5052278;28;20565;-86
2021/12/10 07:22:31;;;;;;;5.20;0.85;;;;;;;;;;5052042;28;20037;-88
2021/12/10 07:24:57;;;;;;;6.50;0.70;;;;;;;;;;5052275;28;20483;-88
2021/12/10 07:27:22;;;;;;;3.17;0.60;;;;;;;;;;5052364;28;20024;-88
2021/12/10 07:29:47;;;;;;;3.13;0.93;;;;;;;;;;5051987;28;20477;-88
2021/12/10 07:32:13;;;;;;;2.17;0.70;;;;;;;;;;5051804;28;20115;-88
2021/12/10 07:34:38;;;;;;;2.10;0.82;;;;;;;;;;5053160;28;20029;-88
2021/12/10 07:37:03;;;;;;;2.58;0.85;;;;;;;;;;5051823;28;20021;-88
2021/12/10 07:39:29;;;;;;;7.22;0.93;;;;;;;;;;5052131;28;20140;-89
2021/12/10 07:41:55;;;;;;;6.55;0.90;;;;;;;;;;5052141;28;20059;-88
2021/12/10 07:44:20;;;;;;;3.25;0.70;;;;;;;;;;5051537;28;20029;-88
2021/12/10 07:46:48;;;;;;;5.45;0.80;;;;;;;;;;5045145;28;20028;-87
2021/12/10 07:49:16;;;;;;;3.10;0.95;;;;;;;;;;5052233;28;20408;-88
2021/12/10 07:51:44;;;;;;;4.40;1.13;;;;;;;;;;5053098;28;20021;-88
2021/12/10 07:54:10;;;;;;;3.17;0.73;;;;;;;;;;5051980;28;20025;-88
2021/12/10 07:56:35;;;;;;;6.70;1.10;;;;;;;;;;5051721;28;20139;-88
2021/12/10 07:59:00;;;;;;;2.78;0.85;;;;;;;;;;5051839;28;20489;-89
2021/12/10 08:01:27;;;;;;;4.93;1.02;;;;;;;;;;5052199;28;20024;-89
2021/12/10 08:03:53;;;;;;;1.45;0.57;;;;;;;;;;5051362;28;20025;-89
2021/12/10 08:06:20;;;;;;;1.92;1.10;;;;;;;;;;5052021;28;20031;-89
2021/12/10 08:08:45;;;;;;;4.55;0.93;;;;;;;;;;5052108;28;20443;-89
2021/12/10 08:11:11;;;;;;;2.15;0.60;;;;;;;;;;5051804;28;20067;-89
2021/12/10 08:13:38;;;;;;;3.88;1.10;;;;;;;;;;5053273;28;20021;-89
2021/12/10 08:16:03;;;;;;;2.80;0.82;;;;;;;;;;5052046;28;20018;-89
2021/12/10 08:18:28;;;;;;;1.92;0.82;;;;;;;;;;5051920;28;20024;-89
2021/12/10 08:20:54;;;;;;;2.05;0.60;;;;;;;;;;5081423;28;20527;-89
2021/12/10 08:23:19;;;;;;;2.58;0.82;;;;;;;;;;5049029;28;20055;-89
2021/12/10 08:25:45;;;;;;;3.40;1.15;;;;;;;;;;5051983;28;20041;-89
2021/12/10 08:28:10;;;;;;;3.13;0.82;;;;;;;;;;5051668;28;20033;-89
2021/12/10 08:30:37;;;;;;;6.10;1.38;;;;;;;;;;5051269;28;20029;-89
2021/12/10 08:33:03;;;;;;;3.23;1.27;;;;;;;;;;5068360;28;20025;-89
2021/12/10 08:35:29;;;;;;;2.10;1.00;;;;;;;;;;5051814;28;20025;-89
2021/12/10 08:37:56;;;;;;;3.63;0.80;;;;;;;;;;5058148;28;20052;-89
2021/12/10 08:40:23;;;;;;;2.80;0.95;;;;;;;;;;5063012;28;20512;-89
2021/12/10 08:42:49;;;;;;;2.65;1.10;;;;;;;;;;5051467;28;20492;-89
2021/12/10 08:45:15;;;;;;;3.88;0.77;;;;;;;;;;5051669;28;20021;-89
2021/12/10 08:47:40;;;;;;;1.30;0.70;;;;;;;;;;5055775;28;20035;-89
2021/12/10 08:50:07;;;;;;;4.93;0.95;;;;;;;;;;5056682;28;20459;-89
2021/12/10 08:52:32;;;;;;;3.10;0.90;;;;;;;;;;5055241;28;20032;-89
2021/12/10 08:54:57;;;;;;;2.65;0.77;;;;;;;;;;5056523;28;20440;-89
2021/12/10 08:57:23;;;;;;;2.28;0.80;;;;;;;;;;5056482;28;20384;-89
2021/12/10 08:59:48;;;;;;;2.53;0.85;;;;;;;;;;5055232;28;20036;-89
2021/12/10 09:02:14;;;;;;;1.48;0.75;;;;;;;;;;5055172;28;20033;-89
2021/12/10 09:04:40;;;;;;;2.60;1.30;;;;;;;;;;5055132;28;20029;-89
2021/12/10 09:07:08;;;;;;;2.75;0.80;;;;;;;;;;5056283;28;20037;-86
2021/12/10 09:09:34;;;;;;;1.50;0.75;;;;;;;;;;5054933;28;20033;-86
2021/12/10 09:12:03;;;;;;;0.50;0.40;;;;;;;;;;5056353;28;20471;-86
2021/12/10 09:14:33;;;;;;;4.80;1.15;;;;;;;;;;5073765;28;20025;-86
2021/12/10 09:16:58;;;;;;;1.75;0.98;;;;;;;;;;5056110;28;20017;-86
2021/12/10 09:19:24;;;;;;;1.90;1.00;;;;;;;;;;5054696;28;20029;-87
2021/12/10 09:21:50;;;;;;;2.13;1.00;;;;;;;;;;5054831;28;20112;-86
2021/12/10 09:24:18;;;;;;;4.40;1.10;;;;;;;;;;5054661;28;20382;-86
2021/12/10 09:26:44;;;;;;;2.15;0.93;;;;;;;;;;5088022;28;20107;-87
2021/12/10 09:29:12;;;;;;;1.77;0.98;;;;;;;;;;5065128;28;20029;-87
2021/12/10 09:31:39;;;;;;;3.45;1.00;;;;;;;;;;5082262;28;20509;-86
2021/12/10 09:34:05;;;;;;;2.00;1.10;;;;;;;;;;5087130;28;20017;-86
2021/12/10 09:36:30;;;;;;;2.75;1.30;;;;;;;;;;5086379;28;20044;-86
2021/12/10 09:38:55;;;;;;;2.10;0.82;;;;;;;;;;5054162;28;20458;-86
2021/12/10 09:41:22;;;;;;;2.92;0.98;;;;;;;;;;5055610;28;20025;-86
2021/12/10 09:43:47;;;;;;;1.08;0.50;;;;;;;;;;5054282;28;20025;-87
2021/12/10 09:46:13;;;;;;;2.58;1.05;;;;;;;;;;5060186;28;20449;-86
2021/12/10 09:48:39;;;;;;;2.72;1.05;;;;;;;;;;5071163;28;20025;-86
2021/12/10 09:51:24;;;;;;;3.85;0.98;;;;;;;;;;5071610;28;20487;-86
2021/12/10 09:53:52;;;;;;;1.77;0.90;;;;;;;;;;5070523;28;20116;-86
2021/12/10 09:56:17;;;;;;;1.48;0.80;;;;;;;;;;5056683;28;20108;-85
2021/12/10 09:58:43;;;;;;;2.08;0.90;;;;;;;;;;5050518;28;20461;-86
2021/12/10 10:01:19;;;;;;;2.60;0.90;;;;;;;;;;5046181;28;20393;-86
2021/12/10 10:03:46;;;;;;;1.05;0.73;;;;;;;;;;5054851;28;21396;-86
2021/12/10 10:06:12;;;;;;;2.35;0.80;;;;;;;;;;5053188;28;20486;-86
2021/12/10 10:08:38;;;;;;;4.28;1.42;;;;;;;;;;5087457;28;20021;-86
2021/12/10 10:11:08;;;;;;;1.77;0.90;;;;;;;;;;5087167;28;20393;-86
2021/12/10 10:13:34;;;;;;;1.08;0.73;;;;;;;;;;5077008;28;20025;-86
2021/12/10 10:16:00;;;;;;;2.53;1.10;;;;;;;;;;5033773;28;20104;-86
2021/12/10 10:18:26;;;;;;;2.87;1.20;;;;;;;;;;5033772;28;20523;-86
2021/12/10 10:20:56;;;;;;;2.63;1.27;;;;;;;;;;5033593;28;20026;-86
2021/12/10 10:23:22;;;;;;;3.30;1.30;;;;;;;;;;5033732;28;20025;-85
2021/12/10 10:25:49;;;;;;;2.23;1.17;;;;;;;;;;5034763;28;20095;-86
2021/12/10 10:28:14;;;;;;;6.93;1.40;;;;;;;;;;5056030;28;20384;-85
2021/12/10 10:30:58;;;;;;;3.40;1.57;;;;;;;;;;5049225;28;20029;-85
2021/12/10 10:33:24;;;;;;;4.73;1.80;;;;;;;;;;5049090;28;20025;-85
2021/12/10 10:35:54;;;;;;;2.70;1.73;;;;;;;;;;5080345;28;20025;-86
2021/12/10 10:38:20;;;;;;;3.80;1.63;;;;;;;;;;5082840;28;20021;-85
2021/12/10 10:40:52;;;;;;;1.60;0.83;;;;;;;;;;5055737;28;20079;-86
2021/12/10 10:43:18;;;;;;;3.65;1.48;;;;;;;;;;5061546;28;20025;-85
2021/12/10 10:45:44;;;;;;;3.53;1.30;;;;;;;;;;5054107;28;20032;-86
2021/12/10 10:48:11;;;;;;;3.00;1.27;;;;;;;;;;5065455;28;20033;-86
2021/12/10 10:50:39;;;;;;;2.63;0.97;;;;;;;;;;5052539;28;20025;-86
2021/12/10 10:53:10;;;;;;;4.70;1.17;;;;;;;;;;5065814;28;20051;-86
2021/12/10 10:56:01;;;;;;;2.57;1.17;;;;;;;;;;5065295;28;20101;-86
2021/12/10 10:58:30;;;;;;;2.40;1.30;;;;;;;;;;5047367;28;20040;-85
2021/12/10 11:01:01;;;;;;;2.00;1.10;;;;;;;;;;5065442;28;20496;-86
2021/12/10 11:03:36;;;;;;;2.77;0.90;;;;;;;;;;5065968;28;20028;-86
2021/12/10 11:06:02;;;;;;;2.37;1.30;;;;;;;;;;5066132;28;20029;-86
2021/12/10 11:08:32;;;;;;;2.73;1.37;;;;;;;;;;5065494;28;20026;-86
2021/12/10 11:11:05;;;;;;;2.07;1.20;;;;;;;;;;5048939;28;20031;-86
2021/12/10 11:13:31;;;;;;;1.70;1.00;;;;;;;;;;5052641;28;20017;-85
2021/12/10 11:15:58;;;;;;;2.87;1.30;;;;;;;;;;5052650;28;20520;-86
2021/12/10 11:18:24;;;;;;;2.90;1.07;;;;;;;;;;5052395;28;20040;-86
2021/12/10 11:20:49;;;;;;;6.07;1.40;;;;;;;;;;5051996;28;20021;-86
2021/12/10 11:23:16;;;;;;;1.90;1.17;;;;;;;;;;5052252;28;20012;-86
2021/12/10 11:25:43;;;;;;;2.20;1.20;;;;;;;;;;5051896;28;20492;-85
2021/12/10 11:28:16;;;;;;;2.07;1.30;;;;;;;;;;5053641;28;20021;-86
2021/12/10 11:30:44;;;;;;;2.63;1.30;;;;;;;;;;5051903;28;20484;-85
2021/12/10 11:33:11;;;;;;;3.77;1.40;;;;;;;;;;5085886;28;20029;-86
2021/12/10 11:35:42;;;;;;;2.17;1.30;;;;;;;;;;5085746;28;20023;-86
2021/12/10 11:38:16;;;;;;;3.30;1.57;;;;;;;;;;5053613;28;20092;-86
2021/12/10 11:40:52;;;;;;;3.43;1.50;;;;;;;;;;5053548;28;20028;-82
2021/12/10 11:46:27;;;;;;;2.77;1.40;;;;;;;;;;5053614;28;20028;-82
2021/12/10 11:49:00;;;;;;;4.97;1.33;;;;;;;;;;5052962;28;20083;-83
2021/12/10 11:51:29;;;;;;;3.57;1.83;;;;;;;;;;5051849;28;20013;-83
2021/12/10 11:53:59;;;;;;;3.97;2.13;;;;;;;;;;5051856;28;20491;-82
2021/12/10 11:56:30;;;;;;;4.87;1.47;;;;;;;;;;5053165;28;20020;-82
2021/12/10 11:59:10;;;;;;;4.37;1.77;;;;;;;;;;5051109;28;20021;-83
2021/12/10 12:01:53;;;;;;;3.37;1.80;;;;;;;;;;5051462;28;20021;-82
2021/12/10 12:04:38;;;;;;;1.90;1.00;;;;;;;;;;5048959;28;20398;-82
2021/12/10 12:07:13;;;;;;;2.70;1.30;;;;;;;;;;5051586;28;20532;-82
2021/12/10 12:09:39;;;;;;;3.37;1.30;;;;;;;;;;5052678;28;20032;-82
2021/12/10 12:12:09;;;;;;;1.93;1.27;;;;;;;;;;5052619;28;20423;-83
2021/12/10 12:14:35;;;;;;;2.20;1.40;;;;;;;;;;5051029;28;20044;-82
2021/12/10 12:17:04;;;;;;;2.80;1.40;;;;;;;;;;5051740;28;20021;-83
2021/12/10 12:19:30;;;;;;;2.20;1.10;;;;;;;;;;5051137;28;20067;-82
2021/12/10 12:22:31;;;;;;;3.80;1.47;;;;;;;;;;5055821;28;20495;-83
2021/12/10 12:27:25;;;;;;;4.80;1.30;;;;;;;;;;5058621;28;20028;-83
2021/12/10 12:29:53;;;;;;;2.77;1.33;;;;;;;;;;5054848;28;20021;-83
2021/12/10 12:32:28;;;;;;;2.73;1.17;;;;;;;;;;5062885;28;20672;-82
2021/12/10 12:34:53;;;;;;;2.50;1.10;;;;;;;;;;5054977;28;20028;-82
2021/12/10 12:37:20;;;;;;;2.33;1.20;;;;;;;;;;5056244;28;20029;-82
2021/12/10 12:39:53;;;;;;;2.87;1.10;;;;;;;;;;5069838;28;20021;-82
2021/12/10 12:42:26;;;;;;;1.83;1.00;;;;;;;;;;5035344;28;20060;-82
2021/12/10 12:44:51;;;;;;;2.13;0.90;;;;;;;;;;5043552;28;20031;-82
2021/12/10 12:47:27;;;;;;;1.37;0.77;;;;;;;;;;5075406;28;20383;-83
2021/12/10 12:49:56;;;;;;;2.73;1.13;;;;;;;;;;5060547;28;20025;-82
2021/12/10 12:52:30;;;;;;;2.90;1.40;;;;;;;;;;5055148;28;20021;-83
2021/12/10 12:55:01;;;;;;;4.97;1.43;;;;;;;;;;5056480;28;20376;-82
2021/12/10 12:57:46;;;;;;;1.60;1.10;;;;;;;;;;5088676;28;20025;-82
2021/12/10 13:00:21;;;;;;;3.33;1.40;;;;;;;;;;5054614;28;20114;-82
2021/12/10 13:03:00;;;;;;;2.77;1.30;;;;;;;;;;5055263;28;20578;-82
2021/12/10 13:05:48;;;;;;;3.33;1.20;;;;;;;;;;5054979;28;20021;-82
2021/12/10 13:08:15;;;;;;;1.73;1.20;;;;;;;;;;5054987;28;20024;-82
2021/12/10 13:10:49;;;;;;;2.30;1.60;;;;;;;;;;5072868;28;20082;-81
2021/12/10 13:13:17;;;;;;;7.00;1.40;;;;;;;;;;5076300;28;20012;-82
2021/12/10 13:15:47;;;;;;;2.27;1.20;;;;;;;;;;5061420;28;20388;-81
2021/12/10 13:18:13;;;;;;;2.00;1.10;;;;;;;;;;5055089;28;20084;-82
2021/12/10 13:20:40;;;;;;;2.97;1.40;;;;;;;;;;5058056;28;20037;-82
2021/12/10 13:23:08;;;;;;;1.83;1.23;;;;;;;;;;5088195;28;20029;-82
2021/12/10 13:25:33;;;;;;;2.07;1.37;;;;;;;;;;5035924;28;20061;-83
2021/12/10 13:28:00;;;;;;;2.70;1.30;;;;;;;;;;5068050;28;20029;-82
2021/12/10 13:30:28;;;;;;;4.07;1.20;;;;;;;;;;5067611;28;20052;-82
2021/12/10 13:32:54;;;;;;;3.30;1.27;;;;;;;;;;5067404;28;20024;-82
2021/12/10 13:35:20;;;;;;;3.30;1.50;;;;;;;;;;5069247;28;20017;-82
2021/12/10 13:37:46;;;;;;;3.33;1.80;;;;;;;;;;5034412;28;20040;-81
2021/12/10 13:40:12;;;;;;;2.57;1.50;;;;;;;;;;5052479;28;20020;-81
2021/12/10 13:42:38;;;;;;;3.43;1.70;;;;;;;;;;5054543;28;20016;-82
2021/12/10 13:45:05;;;;;;;2.60;1.43;;;;;;;;;;5054315;28;20017;-82
2021/12/10 13:47:35;;;;;;;1.83;1.47;;;;;;;;;;5054327;28;20167;-82
2021/12/10 13:50:00;;;;;;;5.03;1.70;;;;;;;;;;5053797;28;20059;-81
2021/12/10 13:52:44;;;;;;;3.67;1.70;;;;;;;;;;5087876;28;20115;-82
2021/12/10 13:55:28;;;;;;;3.87;1.57;;;;;;;;;;5087740;28;20376;-82
2021/12/10 13:58:12;;;;;;;3.33;1.47;;;;;;;;;;5087814;28;20120;-82
2021/12/10 14:00:38;;;;;;;3.40;1.67;;;;;;;;;;5086620;28;20075;-82
2021/12/10 14:03:04;;;;;;;5.27;1.97;;;;;;;;;;5087525;28;20369;-82
2021/12/10 14:05:30;;;;;;;3.70;1.80;;;;;;;;;;5087229;28;20028;-82
2021/12/10 14:08:07;;;;;;;2.57;1.70;;;;;;;;;;5087344;28;20025;-82
2021/12/10 14:10:33;;;;;;;5.57;2.40;;;;;;;;;;5087220;28;20036;-81
2021/12/10 14:13:01;;;;;;;2.97;1.97;;;;;;;;;;5087272;28;20146;-81
2021/12/10 14:15:44;;;;;;;3.57;2.20;;;;;;;;;;5058815;28;20021;-82
2021/12/10 14:18:14;;;;;;;3.83;2.20;;;;;;;;;;5053733;28;20028;-82
2021/12/10 14:20:58;;;;;;;2.93;2.00;;;;;;;;;;5053485;28;20465;-82
2021/12/10 14:23:25;;;;;;;2.93;1.90;;;;;;;;;;5053651;28;20021;-82
2021/12/10 14:25:56;;;;;;;4.30;2.50;;;;;;;;;;5053632;28;20024;-82
2021/12/10 14:28:38;;;;;;;4.27;2.17;;;;;;;;;;5053008;28;20028;-82
2021/12/10 14:31:04;;;;;;;4.78;2.30;;;;;;;;;;5053275;28;20380;-81
2021/12/10 14:33:37;;;;;;;4.53;2.40;;;;;;;;;;5053558;28;20025;-82
2021/12/10 14:36:02;;;;;;;3.90;2.27;;;;;;;;;;5053368;28;20024;-82
2021/12/10 14:38:33;;;;;;;4.43;2.23;;;;;;;;;;5086880;28;20020;-81
2021/12/10 14:41:01;;;;;;;4.00;2.47;;;;;;;;;;5053051;28;20025;-82
2021/12/10 14:43:39;;;;;;;4.60;2.23;;;;;;;;;;5052274;28;20031;-82
2021/12/10 14:46:19;;;;;;;3.77;2.33;;;;;;;;;;5054234;28;20587;-82
2021/12/10 14:49:23;;;;;;;3.97;2.57;;;;;;;;;;5052569;28;20017;-81
2021/12/10 14:52:03;;;;;;;5.20;2.50;;;;;;;;;;5032166;28;20068;-82
2021/12/10 14:54:28;;;;;;;3.80;2.60;;;;;;;;;;5066154;28;20054;-82
2021/12/10 14:56:59;;;;;;;3.87;2.47;;;;;;;;;;5074146;28;20016;-81
2021/12/10 14:59:28;;;;;;;5.30;2.60;;;;;;;;;;5072819;28;20021;-82